Conway, North Carolina
Current Conditions -  °F | °C
As of 10:35 AM on Monday 22 Dec 2014 (Local Time) from KASJ Reporting Station
Light Rain Light Rain  
Wind Chill: 35°   Ceiling: 900
Heat Index: 40°   Visibility: 5mi
Dew Point: 39°   Wind: 7mph
Humidity: 95%   Direction: 20°NNE
Pressure: 30.15"   Gusts: NA
Location:  36.44°N, 77.23°W
Report Text: KASJ 221535Z AUTO 02006KT 5SM -RA OVC009 05/04 A3015 RMK AO2 T00450037
Loading
Personal Weather Stations






























Interactive Weather Map New forecast layout! Learn more

10-Day Weather Forecast

Advertisements
Track Severe Weather on mobile